Atwood, Colorado
Current Conditions -  °F | °C
As of 6:55 PM on Saturday 25 Oct 2014 (Local Time) from KSTK Reporting Station
Haze Haze  
Wind Chill: 66°   Ceiling: 700
Heat Index: 66°   Visibility: 1.2mi
Dew Point: 36°   Wind: 3mph
Humidity: 32%   Direction: 130°SE
Pressure: 29.99"   Gusts: NA
Location:  40.55°N, 103.27°W
Report Text: KSTK 260055Z AUTO 13003KT 1 1/4SM HZ VV007 19/02 A2999 RMK AO2
Loading
Personal Weather Stations






























Interactive Weather Map New forecast layout! Learn more

10-Day Weather Forecast

Advertisements
Track Severe Weather on mobile